Hatfield, Kentucky
Current Conditions -  °F | °C
As of 1:35 PM on Wednesday 26 Nov 2014 (Local Time) from KPBX Reporting Station
Broken Clouds Broken Clouds  
Wind Chill: 44°   Ceiling: 3700
Heat Index: 44°   Visibility: 10mi
Dew Point: 32°   Wind: 3mph
Humidity: 62%   Direction: 240°WSW
Pressure: 29.99"   Gusts: NA
Location:  37.632°N, 82.2603°W
Report Text: KPBX 261835Z AUTO 24003KT 10SM BKN037 07/00 A2999 RMK AO2 T00690000
Loading
Personal Weather Stations






























Interactive Weather Map New forecast layout! Learn more

10-Day Weather Forecast

Advertisements
Track Severe Weather on mobile